Mekoryuk Airport Mekoryuk US
ICAO: PAMY
IATA:
Category: Medium
Scheduled Services:

Elevation: 48 ft
TransAlt. 18000 ft.

Airport Communications:
AWOS 3:123.9
ANCHORAGE CNTR:124.5
CTAF:122.9
KENAI RDO:122
TWEB:32.3

PAMY Zoom In..

Runways:

(A) RW 05 length 3070 ft width 75 ft
---- / hdg 54

(B) RW 23 length 3070 ft width 75 ft
---- / hdg 234

Location; PAMY
Day. 23 / Time. 23.44 Zulu
* Altimeter: 30.32
* Temperature: -16° c. -3.2°f.
* Wind from: 050° Speed 09 kn.
Dewpoint: -18° c.
Visibility: 10 Statute Miles.
Clouds: Scattered 1100 ft.
Clouds: Overcast 9000 ft.

PAMY 232344Z AUTO 05009KT 10SM SCT011 OVC090 M16/M18 A3032 RMK AO2 SNB03E13 P0000 FZRANO


Wind From 050°
Speed 09 kn.

YouTube Music Video
 
jpsmedia.com for Web Design  worldairports.se 2018   terms of use